createdAt,value
2022-09-15T00:01:20.360Z,18.00
2022-09-15T00:03:48.768Z,14.60
2022-09-15T00:06:17.493Z,18.00
2022-09-15T00:08:45.534Z,17.90
2022-09-15T00:11:20.829Z,17.90
2022-09-15T00:13:49.331Z,17.90
2022-09-15T00:16:19.717Z,17.90
2022-09-15T00:18:47.923Z,17.90
2022-09-15T00:21:20.701Z,17.90
2022-09-15T00:23:49.906Z,17.90
2022-09-15T00:26:24.055Z,17.90
2022-09-15T00:28:52.778Z,17.90
2022-09-15T00:31:25.476Z,17.90
2022-09-15T00:33:57.054Z,17.90
2022-09-15T00:36:26.723Z,17.90
2022-09-15T00:38:55.244Z,17.90
2022-09-15T00:41:24.752Z,17.90
2022-09-15T00:44:03.604Z,17.90
2022-09-15T00:46:37.421Z,17.90
2022-09-15T00:49:28.446Z,18.00
2022-09-15T00:52:11.818Z,18.00
2022-09-15T00:54:49.922Z,18.00
2022-09-15T00:57:51.010Z,18.00
2022-09-15T01:00:22.582Z,18.00
2022-09-15T01:02:50.976Z,18.00
2022-09-15T01:05:23.714Z,18.00
2022-09-15T01:08:07.365Z,18.00
2022-09-15T01:10:39.932Z,18.00
2022-09-15T01:13:12.565Z,18.00
2022-09-15T01:16:09.636Z,18.00
2022-09-15T01:19:02.534Z,18.00
2022-09-15T01:21:55.693Z,18.00
2022-09-15T01:24:25.846Z,18.00
2022-09-15T01:27:47.702Z,18.00
2022-09-15T01:30:23.956Z,17.90
2022-09-15T01:33:24.596Z,17.90
2022-09-15T01:36:01.574Z,17.90
2022-09-15T01:39:03.678Z,18.70
2022-09-15T01:41:43.194Z,17.90
2022-09-15T01:44:24.157Z,17.90
2022-09-15T01:47:00.097Z,18.00
2022-09-15T01:49:35.607Z,18.00
2022-09-15T01:52:03.773Z,18.00
2022-09-15T01:54:40.255Z,18.00
2022-09-15T01:59:36.041Z,18.00
2022-09-15T02:02:18.001Z,18.00
2022-09-15T02:05:03.770Z,18.00
2022-09-15T02:07:47.854Z,20.40
2022-09-15T02:11:05.439Z,18.00
2022-09-15T02:13:50.250Z,18.00
2022-09-15T02:16:23.059Z,18.00
2022-09-15T02:19:09.746Z,18.00
2022-09-15T02:22:04.460Z,18.00
2022-09-15T02:24:40.490Z,18.00
2022-09-15T02:27:16.206Z,18.00
2022-09-15T02:29:47.096Z,18.00
2022-09-15T02:32:19.497Z,18.00
2022-09-15T02:34:51.508Z,18.00
2022-09-15T02:37:22.062Z,18.00
2022-09-15T02:39:58.088Z,18.00
2022-09-15T02:42:32.043Z,17.90
2022-09-15T02:45:01.089Z,17.90
2022-09-15T02:47:29.527Z,18.00
2022-09-15T02:49:57.286Z,18.00
2022-09-15T02:52:25.053Z,18.00
2022-09-15T02:57:21.388Z,18.00
2022-09-15T03:00:07.701Z,19.30
2022-09-15T03:02:35.529Z,18.00
2022-09-15T03:05:03.600Z,18.00
2022-09-15T03:37:19.503Z,18.00
2022-09-15T03:39:48.275Z,18.00
2022-09-15T03:59:34.607Z,18.10
2022-09-15T04:24:21.800Z,18.10
2022-09-15T04:29:18.932Z,18.10
2022-09-15T04:56:30.919Z,18.00
2022-09-15T04:59:03.939Z,17.90
2022-09-15T05:01:35.611Z,17.80
2022-09-15T05:04:05.044Z,17.60
2022-09-15T05:09:09.973Z,17.30
2022-09-15T05:24:01.755Z,17.10
2022-09-15T05:26:30.653Z,16.90
2022-09-15T05:31:31.198Z,16.70
2022-09-15T05:34:03.021Z,16.50
2022-09-15T05:41:29.914Z,16.00
2022-09-15T05:43:58.870Z,15.90
2022-09-15T05:46:28.067Z,15.80
2022-09-15T05:48:58.679Z,15.60
2022-09-15T06:01:24.633Z,15.30
2022-09-15T06:03:53.876Z,15.30
2022-09-15T06:06:23.746Z,15.30
2022-09-15T06:08:58.899Z,15.20
2022-09-15T06:11:30.068Z,15.20
2022-09-15T06:14:03.453Z,15.20
2022-09-15T06:16:34.075Z,15.10
2022-09-15T06:21:32.710Z,15.20
2022-09-15T06:24:04.701Z,15.20
2022-09-15T06:29:04.032Z,15.10
2022-09-15T06:31:33.874Z,15.10
2022-09-15T06:34:04.211Z,15.10
2022-09-15T06:44:22.261Z,14.90
2022-09-15T06:46:50.494Z,14.90
2022-09-15T06:59:14.162Z,14.60
2022-09-15T07:01:43.104Z,14.70
2022-09-15T07:04:11.247Z,14.70
2022-09-15T07:06:39.956Z,14.70
2022-09-15T07:09:08.301Z,14.90
2022-09-15T07:14:05.133Z,15.00
2022-09-15T07:16:33.333Z,15.00
2022-09-15T07:29:06.963Z,15.10
2022-09-15T07:31:37.534Z,15.30
2022-09-15T07:34:06.564Z,15.30
2022-09-15T07:39:05.485Z,15.50
2022-09-15T07:44:02.665Z,15.50
2022-09-15T07:46:32.518Z,15.70
2022-09-15T07:49:02.975Z,15.70
2022-09-15T07:53:59.521Z,15.80
2022-09-15T08:06:24.605Z,16.20
2022-09-15T08:14:03.129Z,16.10
2022-09-15T08:24:01.526Z,14.80
2022-09-15T08:26:31.137Z,16.30
2022-09-15T08:44:38.342Z,16.50
2022-09-15T08:47:19.084Z,16.40
2022-09-15T08:50:01.267Z,16.50
2022-09-15T08:52:52.484Z,16.50
2022-09-15T08:55:45.203Z,16.50
2022-09-15T08:58:25.866Z,16.60
2022-09-15T09:01:12.289Z,16.60
2022-09-15T09:04:26.291Z,16.60
2022-09-15T09:07:37.949Z,16.60
2022-09-15T09:10:16.421Z,16.70
2022-09-15T09:12:56.608Z,16.70
2022-09-15T09:15:27.199Z,16.80
2022-09-15T09:18:50.752Z,16.80
2022-09-15T09:21:24.226Z,16.80
2022-09-15T09:24:26.137Z,17.00
2022-09-15T09:26:55.975Z,17.00
2022-09-15T09:29:39.553Z,17.10
2022-09-15T09:32:21.610Z,17.00
2022-09-15T09:35:03.826Z,17.00
2022-09-15T09:40:01.616Z,16.90
2022-09-15T09:42:32.235Z,17.00
2022-09-15T09:47:29.960Z,17.00
2022-09-15T09:52:38.050Z,17.10
2022-09-15T09:55:27.750Z,17.10
2022-09-15T09:58:25.613Z,17.20
2022-09-15T10:03:32.094Z,15.80
2022-09-15T10:06:12.511Z,17.20
2022-09-15T10:08:56.380Z,17.30
2022-09-15T10:11:50.098Z,17.30
2022-09-15T10:14:56.727Z,17.30
2022-09-15T10:17:38.521Z,17.30
2022-09-15T10:20:32.559Z,17.40
2022-09-15T10:23:19.048Z,17.40
2022-09-15T10:28:27.975Z,17.50
2022-09-15T10:31:10.976Z,17.60
2022-09-15T10:33:42.733Z,17.80
2022-09-15T10:36:24.018Z,17.80
2022-09-15T10:39:32.271Z,17.90
2022-09-15T10:42:22.930Z,18.00
2022-09-15T10:45:18.489Z,18.10
2022-09-15T10:51:35.194Z,18.10
2022-09-15T10:54:35.495Z,18.20
2022-09-15T10:57:42.789Z,18.20
2022-09-15T11:00:24.463Z,18.30
2022-09-15T11:05:39.440Z,18.60
2022-09-15T11:08:46.586Z,18.80
2022-09-15T11:11:52.990Z,19.40
2022-09-15T11:14:54.963Z,18.40
2022-09-15T11:18:18.765Z,20.20
2022-09-15T11:21:24.542Z,19.90
2022-09-15T11:24:34.737Z,19.60
2022-09-15T11:30:05.569Z,19.60
2022-09-15T11:35:39.789Z,19.60
2022-09-15T11:38:18.374Z,19.60
2022-09-15T11:41:13.733Z,19.90
2022-09-15T11:44:18.309Z,20.20
2022-09-15T11:47:00.153Z,20.10
2022-09-15T11:49:50.996Z,19.90
2022-09-15T11:52:43.550Z,20.00
2022-09-15T11:55:33.614Z,20.00
2022-09-15T12:01:10.704Z,20.20
2022-09-15T12:03:54.005Z,20.20
2022-09-15T12:06:35.206Z,20.30
2022-09-15T12:09:07.340Z,20.60
2022-09-15T12:11:41.984Z,21.10
2022-09-15T12:14:17.453Z,21.30
2022-09-15T12:19:42.081Z,21.00
2022-09-15T12:22:33.908Z,20.90
2022-09-15T12:25:17.182Z,21.10
2022-09-15T12:28:23.333Z,21.00
2022-09-15T12:31:26.766Z,21.50
2022-09-15T12:34:21.443Z,21.70
2022-09-15T12:36:53.507Z,22.40
2022-09-15T12:39:41.614Z,22.20
2022-09-15T12:42:31.293Z,22.30
2022-09-15T12:45:21.290Z,22.70
2022-09-15T12:47:56.543Z,23.00
2022-09-15T12:50:39.631Z,23.10
2022-09-15T12:56:10.509Z,22.00
2022-09-15T12:58:51.014Z,22.20
2022-09-15T13:06:29.429Z,22.20
2022-09-15T13:09:04.035Z,22.60
2022-09-15T13:11:36.930Z,23.10
2022-09-15T13:16:45.698Z,22.30
2022-09-15T13:19:44.511Z,21.80
2022-09-15T13:25:13.784Z,21.70
2022-09-15T13:27:55.289Z,21.80
2022-09-15T13:30:58.330Z,21.70
2022-09-15T13:41:10.241Z,21.60
2022-09-15T13:43:59.245Z,21.80
2022-09-15T13:46:39.401Z,21.80
2022-09-15T13:49:32.892Z,21.70
2022-09-15T13:52:16.345Z,21.20
2022-09-15T13:55:16.712Z,21.30
2022-09-15T14:00:55.038Z,21.00
2022-09-15T14:03:34.010Z,20.90
2022-09-15T14:08:33.523Z,20.90
2022-09-15T14:11:09.953Z,21.00
2022-09-15T14:13:45.229Z,21.20
2022-09-15T14:16:26.721Z,21.30
2022-09-15T14:18:58.451Z,21.70
2022-09-15T14:21:35.341Z,22.30
2022-09-15T14:24:13.745Z,22.30
2022-09-15T14:29:20.173Z,21.90
2022-09-15T14:31:49.295Z,22.00
2022-09-15T14:34:24.472Z,22.20
2022-09-15T14:37:27.621Z,21.70
2022-09-15T14:39:59.643Z,21.40
2022-09-15T14:42:38.778Z,21.40
2022-09-15T14:48:15.821Z,21.60
2022-09-15T14:51:01.998Z,21.80
2022-09-15T14:53:35.463Z,22.20
2022-09-15T14:56:12.319Z,22.50
2022-09-15T14:58:52.778Z,22.30
2022-09-15T15:01:30.770Z,20.10
2022-09-15T15:04:10.959Z,21.70
2022-09-15T15:06:49.552Z,22.00
2022-09-15T15:09:50.410Z,21.60
2022-09-15T15:12:36.214Z,21.90
2022-09-15T15:15:06.070Z,22.40
2022-09-15T15:17:49.471Z,22.40
2022-09-15T15:20:24.342Z,22.30
2022-09-15T15:23:19.144Z,22.20
2022-09-15T15:25:47.178Z,22.70
2022-09-15T15:28:39.333Z,22.70
2022-09-15T15:31:15.871Z,23.00
2022-09-15T15:34:24.737Z,22.50
2022-09-15T15:36:52.538Z,22.40
2022-09-15T15:39:25.297Z,21.60
2022-09-15T15:42:06.258Z,21.60
2022-09-15T15:44:34.402Z,21.50
2022-09-15T15:47:24.634Z,21.30
2022-09-15T15:50:21.809Z,21.50
2022-09-15T15:52:50.672Z,21.30
2022-09-15T15:55:22.433Z,21.10
2022-09-15T15:57:56.040Z,21.10
2022-09-15T16:00:32.679Z,21.10
2022-09-15T16:03:00.633Z,21.00
2022-09-15T16:05:30.038Z,21.10
2022-09-15T16:08:04.507Z,21.00
2022-09-15T16:10:42.969Z,21.00
2022-09-15T16:13:16.359Z,21.00
2022-09-15T16:15:45.256Z,21.00
2022-09-15T16:18:13.631Z,21.00
2022-09-15T16:20:42.701Z,20.90
2022-09-15T16:23:20.458Z,20.90
2022-09-15T16:25:55.386Z,21.10
2022-09-15T16:28:23.411Z,21.10
2022-09-15T16:30:51.414Z,17.40
2022-09-15T16:36:08.756Z,21.40
2022-09-15T16:41:19.358Z,21.20
2022-09-15T16:46:17.207Z,21.30
2022-09-15T16:48:47.358Z,21.50
2022-09-15T16:51:34.754Z,21.70
2022-09-15T17:16:25.011Z,21.40
2022-09-15T17:23:50.547Z,21.10
2022-09-15T17:26:24.661Z,20.90
2022-09-15T17:41:22.818Z,20.10
2022-09-15T17:51:17.774Z,19.50
2022-09-15T18:01:15.359Z,18.70
2022-09-15T18:03:45.276Z,18.50
2022-09-15T18:11:14.499Z,18.10
2022-09-15T18:16:14.655Z,17.90
2022-09-15T18:21:24.628Z,17.50
2022-09-15T18:36:22.621Z,17.20
2022-09-15T18:58:54.089Z,16.50
2022-09-15T19:21:10.778Z,15.90
2022-09-15T19:26:13.647Z,15.80
2022-09-15T19:31:13.253Z,15.70
2022-09-15T19:36:27.613Z,15.70
2022-09-15T19:39:00.389Z,15.70
2022-09-15T19:53:59.525Z,15.40
2022-09-15T19:56:29.273Z,15.40
2022-09-15T19:58:59.106Z,15.30
2022-09-15T20:01:29.614Z,15.30
2022-09-15T20:11:30.827Z,15.10
2022-09-15T20:14:04.014Z,13.90
2022-09-15T20:21:52.264Z,15.20
2022-09-15T20:29:17.745Z,15.20
2022-09-15T20:39:22.100Z,15.10
2022-09-15T20:59:13.706Z,15.20
2022-09-15T21:04:11.030Z,15.10
2022-09-15T21:21:33.608Z,15.20
2022-09-15T21:24:06.140Z,15.10
2022-09-15T21:27:06.557Z,15.20
2022-09-15T21:49:20.753Z,15.50
2022-09-15T22:06:40.915Z,15.50
2022-09-15T22:09:15.486Z,15.30
2022-09-15T22:11:44.113Z,15.50
2022-09-15T22:14:13.199Z,15.50
2022-09-15T22:16:42.688Z,15.40
2022-09-15T22:19:12.016Z,15.50
2022-09-15T22:21:41.900Z,15.50
2022-09-15T22:24:13.366Z,15.50
2022-09-15T22:26:42.906Z,15.50
2022-09-15T22:39:06.116Z,15.50
2022-09-15T22:41:37.702Z,15.80
2022-09-15T22:44:13.218Z,15.50
2022-09-15T22:49:09.367Z,15.30
2022-09-15T22:54:05.678Z,15.50
2022-09-15T22:56:33.715Z,15.40
2022-09-15T22:59:02.651Z,15.20
2022-09-15T23:01:31.309Z,15.40
2022-09-15T23:04:01.900Z,15.30
2022-09-15T23:06:33.445Z,15.40
2022-09-15T23:09:05.933Z,15.30
2022-09-15T23:11:34.444Z,15.30
2022-09-15T23:16:31.527Z,15.30
2022-09-15T23:23:57.242Z,15.30
2022-09-15T23:26:26.801Z,15.30
2022-09-15T23:31:23.522Z,15.30
2022-09-15T23:38:49.029Z,15.20
2022-09-15T23:41:18.105Z,15.20
2022-09-15T23:43:46.605Z,15.20
2022-09-15T23:46:14.742Z,15.30
2022-09-15T23:56:07.717Z,15.10
2022-09-15T23:58:35.537Z,15.10
